Home > Products > Valid Products > TAF

000
FTUS43 KLSX 290300 AAA
TAFSUS
TAF AMD
KSUS 290314Z 2903/2924 19005KT P6SM BKN250 WS017/24040KT
     FM291100 20006KT P6SM BKN015 WS017/24040KT
     FM291500 20010KT P6SM BKN015
     FM291800 20010KT P6SM SCT015=



000
FTUS43 KLSX 290300 AAA
TAFSUS
TAF AMD
KSUS 290314Z 2903/2924 19005KT P6SM BKN250 WS017/24040KT
     FM291100 20006KT P6SM BKN015 WS017/24040KT
     FM291500 20010KT P6SM BKN015
     FM291800 20010KT P6SM SCT015=



000
FTUS43 KLSX 290300 AAA
TAFSTL
TAF AMD
KSTL 290312Z 2903/3006 18009KT P6SM BKN250 WS017/24040KT
     FM291100 19010KT P6SM BKN015 WS017/24040KT
     FM291500 20012KT P6SM BKN015
     FM291800 20012KT P6SM SCT015=



000
FTUS43 KLSX 290300 AAA
TAFSTL
TAF AMD
KSTL 290312Z 2903/3006 18009KT P6SM BKN250 WS017/24040KT
     FM291100 19010KT P6SM BKN015 WS017/24040KT
     FM291500 20012KT P6SM BKN015
     FM291800 20012KT P6SM SCT015=



000
FTUS43 KLSX 282300
TAFSTL
TAF
KSTL 282337Z 2900/3006 16009KT P6SM BKN250
     FM290300 18009KT P6SM BKN250 WS017/24040KT
     FM290900 19010KT P6SM BKN015 WS017/24040KT
     FM291500 20012KT P6SM BKN015
     FM291800 20012KT P6SM SCT015=



000
FTUS43 KLSX 282300
TAFSUS
TAF
KSUS 282337Z 2900/2924 17005KT P6SM BKN250
     FM290300 19005KT P6SM BKN250 WS017/24040KT
     FM290900 20006KT P6SM BKN015 WS017/24040KT
     FM291500 20010KT P6SM BKN015
     FM291800 20010KT P6SM SCT015=



000
FTUS43 KLSX 282300
TAFCOU
TAF
KCOU 282337Z 2900/2924 17009KT P6SM BKN250
     FM290300 18010KT P6SM BKN250 WS016/24045KT
     FM290900 19010KT P6SM BKN015 WS016/24045KT
     FM291500 19013KT P6SM SCT015=



000
FTUS43 KLSX 282300
TAFUIN
TAF
KUIN 282337Z 2900/2924 15008KT P6SM BKN250
     FM290300 18010KT P6SM BKN250 WS017/24045KT
     FM291000 19010KT P6SM BKN015 WS017/24045KT
     FM291500 20011KT P6SM BKN015
     FM291800 20011KT P6SM SCT015=



000
FTUS43 KLSX 282100 AAA
TAFUIN
TAF AMD
KUIN 282128Z 2821/2918 16007KT P6SM SCT250
     FM290300 18010KT P6SM BKN250 WS020/22040KT
     FM291000 18010KT P6SM OVC015 WS020/22040KT
     FM291500 20010KT P6SM OVC015=



000
FTUS43 KLSX 282000 AAA
TAFSTL
TAF AMD
KSTL 282054Z 2821/2924 16010KT P6SM BKN250
     FM290300 18010KT P6SM BKN250 WS020/22040KT
     FM290900 18010KT P6SM OVC015 WS020/22040KT
     FM291500 20012KT P6SM OVC015
     FM292200 20010KT P6SM BKN015=



000
FTUS43 KLSX 281900 AAA
TAFCOU
TAF AMD
KCOU 281905Z 2819/2918 19012KT P6SM SCT250
     FM290300 18010KT P6SM BKN250 WS020/22040KT
     FM290900 19010KT P6SM OVC015 WS020/22040KT
     FM291500 19012KT P6SM OVC015=



000
FTUS43 KLSX 281700
TAFUIN
TAF
KUIN 281720Z 2818/2918 17012G20KT P6SM SCT250
     FM290300 18010KT P6SM BKN250 WS020/22040KT
     FM291000 18010KT P6SM OVC015 WS020/22040KT
     FM291500 20010KT P6SM OVC015=



000
FTUS43 KLSX 281700
TAFSTL
TAF
KSTL 281720Z 2818/2924 18012G22KT P6SM SCT250
     FM290300 18010KT P6SM BKN250 WS020/22040KT
     FM290900 18010KT P6SM OVC015 WS020/22040KT
     FM291500 20012KT P6SM OVC015
     FM292200 20010KT P6SM BKN015=



000
FTUS43 KLSX 281700
TAFCOU
TAF
KCOU 281720Z 2818/2918 19015G25KT P6SM SCT250
     FM290300 18010KT P6SM BKN250 WS020/22040KT
     FM290900 19010KT P6SM OVC015 WS020/22040KT
     FM291500 19012KT P6SM OVC015=



000
FTUS43 KLSX 281700
TAFSUS
TAF
KSUS 281720Z 2818/2918 18010G18KT P6SM SCT250
     FM290300 18008KT P6SM BKN250 WS020/22040KT
     FM290900 18008KT P6SM OVC015 WS020/22040KT
     FM291500 20010KT P6SM OVC015=



000
FTUS43 KLSX 281400 AAA
TAFSTL
TAF AMD
KSTL 281455Z 2815/2918 18012G18KT P6SM SCT250
     FM282300 18010KT P6SM BKN250
     FM290900 19010KT P6SM BKN015=



000
FTUS43 KLSX 281100
TAFCOU
TAF
KCOU 281136Z 2812/2912 16012KT P6SM SKC WS015/21040KT
     FM281500 19012G18KT P6SM SCT250
     FM282300 19010KT P6SM BKN250
     FM290900 19010KT P6SM BKN015=



000
FTUS43 KLSX 281100
TAFUIN
TAF
KUIN 281136Z 2812/2912 16012KT P6SM SKC WS015/21040KT
     FM281500 18012G18KT P6SM SCT250
     FM282300 18010KT P6SM BKN250
     FM290900 18010KT P6SM BKN015=



000
FTUS43 KLSX 281100
TAFSTL
TAF
KSTL 281136Z 2812/2918 13008KT P6SM SKC
     FM281500 18012G18KT P6SM SCT250
     FM282300 18010KT P6SM BKN250
     FM290900 19010KT P6SM BKN015=



000
FTUS43 KLSX 281100
TAFSUS
TAF
KSUS 281136Z 2812/2912 14005KT P6SM SKC
     FM281500 18010G16KT P6SM SCT250
     FM282300 18006KT P6SM BKN250
     FM290900 18006KT P6SM BKN015=



000
FTUS43 KLSX 280900 AAA
TAFSTL
TAF AMD
KSTL 280927Z 2809/2912 14008KT P6SM SKC
     FM281500 18012G18KT P6SM SCT250
     FM282300 18010KT P6SM BKN250
     FM290900 19010KT P6SM BKN015=



000
FTUS43 KLSX 280500
TAFSTL
TAF
KSTL 280535Z 2806/2912 12007KT P6SM OVC120
     FM281100 15009KT P6SM SCT250
     FM281500 18012G18KT P6SM SCT250
     FM282300 18010KT P6SM BKN250
     FM290900 19010KT P6SM BKN015=



000
FTUS43 KLSX 280500
TAFUIN
TAF
KUIN 280535Z 2806/2906 11007KT P6SM OVC120
     FM281100 14009KT P6SM SCT250 WS014/21040KT
     FM281500 18012G18KT P6SM SCT250
     FM282300 18009KT P6SM BKN250=



000
FTUS43 KLSX 280500
TAFCOU
TAF
KCOU 280535Z 2806/2906 13007KT P6SM SCT250
     FM281100 16009KT P6SM SCT250 WS015/21040KT
     FM281500 19013G19KT P6SM SCT250
     FM282300 19011KT P6SM BKN250=



000
FTUS43 KLSX 280500
TAFSUS
TAF
KSUS 280535Z 2806/2906 12003KT P6SM OVC120
     FM281000 14005KT P6SM SCT250
     FM281500 19010G16KT P6SM SCT250
     FM282300 19006KT P6SM BKN250=



000
FTUS43 KLSX 280200 AAA
TAFSTL
TAF AMD
KSTL 280258Z 2803/2906 11005KT P6SM OVC120
     FM281000 15009KT P6SM SCT250
     FM281500 18012G18KT P6SM SCT250
     FM282300 18010KT P6SM BKN250=



000
FTUS43 KLSX 272300
TAFSTL
TAF
KSTL 272340Z 2800/2906 10004KT P6SM BKN080
     FM281000 15009KT P6SM SCT250
     FM281500 18012G18KT P6SM SCT250
     FM282300 18010KT P6SM BKN250=



000
FTUS43 KLSX 272300
TAFUIN
TAF
KUIN 272340Z 2800/2824 12004KT P6SM OVC070
     FM280800 14007KT P6SM SCT250
     FM281200 16009KT P6SM SCT250 WS014/21040KT
     FM281500 19012G18KT P6SM SCT250
     FM282300 18008KT P6SM BKN250=



000
FTUS43 KLSX 272300
TAFCOU
TAF
KCOU 272340Z 2800/2824 09004KT P6SM BKN080
     FM280500 14008KT P6SM SCT250
     FM281200 16009KT P6SM SCT250 WS015/21040KT
     FM281500 19012G18KT P6SM SCT250
     FM282300 18010KT P6SM BKN250=



000
FTUS43 KLSX 272300
TAFSUS
TAF
KSUS 272340Z 2800/2824 00000KT P6SM BKN080
     FM281000 14005KT P6SM SCT250
     FM281500 19010G16KT P6SM SCT250
     FM282300 18005KT P6SM BKN250=



000
FTUS43 KLSX 272000 AAB
TAFSTL
TAF AMD
KSTL 272043Z 2721/2824 30008KT P6SM SCT030
     FM280100 VRB04KT P6SM BKN070
     FM281400 15010KT P6SM SCT080=



000
FTUS43 KLSX 271900 AAA
TAFSUS
TAF AMD
KSUS 271918Z 2719/2818 30008KT P6SM SCT035
     FM272300 VRB03KT P6SM SCT030
     FM280100 00000KT P6SM BKN070
     FM281400 15008KT P6SM SCT080=



000
FTUS43 KLSX 271900 AAA
TAFSTL
TAF AMD
KSTL 271917Z 2719/2824 31008KT P6SM SCT030
     FM280100 VRB04KT P6SM BKN070
     FM281400 15010KT P6SM SCT080=



000
FTUS43 KLSX 271900 AAA
TAFUIN
TAF AMD
KUIN 271916Z 2719/2818 32008KT P6SM FEW025
     FM280000 VRB04KT P6SM OVC070
     FM281100 15010KT P6SM SCT070=



000
FTUS43 KLSX 271700
TAFUIN
TAF
KUIN 271720Z 2718/2818 31010KT P6SM BKN025
     FM272000 34008KT P6SM SCT025
     FM280000 VRB04KT P6SM OVC070
     FM281100 15010KT P6SM SCT070=



000
FTUS43 KLSX 271700
TAFSUS
TAF
KSUS 271720Z 2718/2818 30006KT P6SM BKN030
     FM272200 VRB03KT P6SM SCT025
     FM280100 00000KT P6SM BKN070
     FM281400 15008KT P6SM SCT080=



000
FTUS43 KLSX 271700
TAFCOU
TAF
KCOU 271720Z 2718/2818 30006KT P6SM SCT020 BKN070
     FM272300 VRB04KT P6SM BKN070
     FM281100 16009KT P6SM SCT080=



000
FTUS43 KLSX 271700
TAFSTL
TAF
KSTL 271720Z 2718/2824 31009KT P6SM BKN030
     FM272200 31006KT P6SM SCT025
     FM280100 VRB04KT P6SM BKN070
     FM281400 15010KT P6SM SCT080=



000
FTUS43 KLSX 271400 AAA
TAFSTL
TAF AMD
KSTL 271455Z 2715/2818 31010KT P6SM BKN025
     FM272200 31009KT P6SM SCT025 BKN250
     FM280100 VRB04KT P6SM BKN100=



000
FTUS43 KLSX 271100
TAFUIN
TAF
KUIN 271140Z 2712/2812 33012KT P6SM OVC020
     FM271700 31009KT P6SM SCT025 SCT250
     FM280000 VRB04KT P6SM BKN100
     FM281100 15009KT P6SM SCT080=



000
FTUS43 KLSX 271100
TAFSTL
TAF
KSTL 271140Z 2712/2818 32012KT P6SM OVC016
     FM271600 31010KT P6SM OVC025
     FM272200 31009KT P6SM SCT025 BKN250
     FM280100 VRB04KT P6SM BKN100=



000
FTUS43 KLSX 271100
TAFCOU
TAF
KCOU 271140Z 2712/2812 32012KT P6SM OVC015
     FM271600 31010KT P6SM OVC025
     FM271900 31007KT P6SM SCT025 SCT100
     FM272300 VRB04KT P6SM BKN100
     FM281100 16009KT P6SM SCT080=



000
FTUS43 KLSX 271100
TAFSUS
TAF
KSUS 271140Z 2712/2812 33009KT P6SM OVC018
     FM271600 31010KT P6SM OVC025
     FM272200 31009KT P6SM SCT025 BKN250
     FM280100 00000KT P6SM BKN100=



000
FTUS43 KLSX 270800 AAA
TAFSTL
TAF AMD
KSTL 270856Z 2709/2812 34012KT P6SM OVC012
      TEMPO 2709/2711 5SM BR
     FM271600 31010KT P6SM OVC025
     FM272100 31009KT P6SM SCT025 BKN250
     FM280300 VRB04KT P6SM BKN100=



000
FTUS43 KLSX 270500
TAFSTL
TAF
KSTL 270530Z 2706/2812 34012G18KT 5SM BR OVC007
      TEMPO 2706/2707 3SM -SN BR OVC003
     FM270800 32012KT P6SM OVC010
     FM271600 31010KT P6SM OVC025
     FM272100 31009KT P6SM SCT025 BKN250
     FM280300 VRB04KT P6SM BKN100=



000
FTUS43 KLSX 270500
TAFCOU
TAF
KCOU 270530Z 2706/2806 32012KT P6SM OVC012
     FM271500 32010KT P6SM OVC025
     FM271900 31007KT P6SM SCT025 BKN250
     FM280000 VRB04KT P6SM SCT100=



000
FTUS43 KLSX 270500
TAFUIN
TAF
KUIN 270530Z 2706/2806 01012KT 5SM BR OVC012
     FM271200 32011KT P6SM OVC022
     FM271800 31010KT P6SM SCT025 BKN250
     FM280000 VRB04KT P6SM BKN100=



000
FTUS43 KLSX 270500
TAFSUS
TAF
KSUS 270530Z 2706/2806 34010G15KT 6SM BR OVC007
      TEMPO 2706/2707 4SM -SN BR
     FM270800 32011KT P6SM OVC010
     FM271600 31009KT P6SM OVC025
     FM272100 31008KT P6SM SCT025 BKN250
     FM280300 VRB03KT P6SM BKN100=



000
FTUS43 KLSX 270400 AAB
TAFSTL
TAF AMD
KSTL 270418Z 2704/2806 34009KT 2SM -DZSN BR OVC007
      TEMPO 2704/2706 1SM -SN BR OVC003
     FM270600 32012G18KT 4SM -SN BR OVC007
     FM271200 31010KT P6SM OVC015
     FM271800 31010KT P6SM SCT025 BKN250=



000
FTUS43 KLSX 270300 AAA
TAFUIN
TAF AMD
KUIN 270315Z 2703/2724 01012KT 3SM -SN BR OVC007
     FM270900 32011KT 6SM BR OVC015
     FM271600 32012KT P6SM SCT015 BKN250=



000
FTUS43 KLSX 270300 AAA
TAFCOU
TAF AMD
KCOU 270312Z 2703/2724 31013G21KT P6SM OVC009
      TEMPO 2703/2705 OVC011
     FM270900 32010KT P6SM OVC015
     FM271800 32009KT P6SM SCT020 BKN250=



000
FTUS43 KLSX 270300 AAA
TAFSUS
TAF AMD
KSUS 270311Z 2703/2724 32010KT 2SM -DZSN BR OVC009
     FM270500 32011G18KT P6SM -SN OVC007
     FM271200 31019KT P6SM OVC015
     FM271800 31009KT P6SM SCT025 BKN250=



000
FTUS43 KLSX 270300 AAA
TAFSTL
TAF AMD
KSTL 270309Z 2703/2806 32007KT 2SM -RASN BR OVC009
     FM270500 32012G18KT P6SM -SN OVC007
     FM271200 31010KT P6SM OVC015
     FM271800 31010KT P6SM SCT025 BKN250=



000
FTUS43 KLSX 262300
TAFUIN
TAF
KUIN 262326Z 2700/2724 07007KT 4SM BR OVC007
      TEMPO 2700/2702 2SM -FZDZSN BR OVC005
     FM270200 35010KT 5SM -SN BR OVC007
     FM270900 32011KT 6SM BR OVC015
     FM271600 32012KT P6SM SCT015 BKN250=



000
FTUS43 KLSX 262300
TAFCOU
TAF
KCOU 262326Z 2700/2724 31014KT P6SM OVC013
      TEMPO 2700/2702 -RASN
     FM270300 31013KT P6SM OVC009
     FM270900 32010KT P6SM OVC015
     FM271800 32009KT P6SM SCT020 BKN250=



000
FTUS43 KLSX 262300
TAFSTL
TAF
KSTL 262326Z 2700/2806 VRB03KT 3SM -DZSN BR OVC006
      TEMPO 2700/2702 1SM -SN BR
     FM270200 32007KT 6SM -RASN BR OVC009
     FM270500 32012KT P6SM OVC007
     FM271200 31010KT P6SM OVC015
     FM271800 31010KT P6SM SCT025 BKN250=



000
FTUS43 KLSX 262300
TAFSUS
TAF
KSUS 262326Z 2700/2724 VRB03KT 3SM -DZSN BR OVC006
      TEMPO 2700/2702 1SM -SN BR
     FM270200 32007KT 6SM -RASN BR OVC009
     FM270500 32010KT P6SM OVC007
     FM271200 31019KT P6SM OVC015
     FM271800 31009KT P6SM SCT025 BKN250=



000
FTUS43 KLSX 262100 AAC
TAFSTL
TAF AMD
KSTL 262159Z 2622/2724 VRB03KT 2SM -DZSN BR VCSH OVC006
      TEMPO 2623/2701 1SM -SHSN BR OVC012
     FM270100 30006KT 6SM BR VCSH OVC009
     FM270500 32011KT P6SM OVC007
     FM271400 31012KT P6SM BKN015
     FM271800 31010KT P6SM SCT025 BKN250=



000
FTUS43 KLSX 262100 AAC
TAFSTL
TAF AMD
KSTL 262159Z 2622/2724 VRB03KT 2SM -DZSN BR VCSH OVC006
      TEMPO 2623/2701 1SM -SHSN BR OVC012
     FM270100 30006KT 6SM BR VCSH OVC009
     FM270500 32011KT P6SM OVC007
     FM271400 31012KT P6SM BKN015
     FM271800 31010KT P6SM SCT025 BKN250=



000
FTUS43 KLSX 262100 AAC
TAFSUS
TAF AMD
KSUS 262137Z 2622/2718 VRB03KT 2SM -DZ BR VCSH OVC007
      TEMPO 2623/2701 1SM -SHSN BR
     FM270100 30006KT 6SM BR VCSH OVC012
     FM270500 31010KT P6SM OVC009
     FM271400 31010KT P6SM BKN015=



000
FTUS43 KLSX 262100 AAA
TAFCOU
TAF AMD
KCOU 262129Z 2621/2718 29010KT P6SM VCSH OVC020
     FM270000 31014KT P6SM OVC009
     FM271400 32009KT P6SM SCT015 BKN250=



000
FTUS43 KLSX 262100 AAA
TAFCOU
TAF AMD
KCOU 262129Z 2621/2718 29010KT P6SM VCSH OVC020
     FM270000 31014KT P6SM OVC009
     FM271400 32009KT P6SM SCT015 BKN250=



000
FTUS43 KLSX 262100 AAB
TAFUIN
TAF AMD
KUIN 262125Z 2621/2718 13006KT 2SM -FZDZSN BR OVC007
     FM262200 VRB04KT 4SM -FZDZSN BR OVC007
     FM270200 34010KT P6SM VCSH OVC007
     FM270600 32012KT P6SM OVC007
     FM271400 32012KT P6SM SCT015 BKN250=



000
FTUS43 KLSX 262100 AAB
TAFUIN
TAF AMD
KUIN 262125Z 2621/2718 13006KT 2SM -FZDZSN BR OVC007
     FM262200 VRB04KT 4SM -FZDZSN BR OVC007
     FM270200 34010KT P6SM VCSH OVC007
     FM270600 32012KT P6SM OVC007
     FM271400 32012KT P6SM SCT015 BKN250=



000
FTUS43 KLSX 262100 AAB
TAFSUS
TAF AMD
KSUS 262108Z 2621/2718 VRB03KT 2SM -DZSN BR OVC007
     FM270000 29006KT 6SM BR VCSH OVC012
     FM270600 32010KT P6SM OVC015
     FM271400 31010KT P6SM BKN020=



000
FTUS43 KLSX 262100 AAB
TAFSTL
TAF AMD
KSTL 262104Z 2621/2724 14006KT 3/4SM -SN BR OVC006
     FM262200 16005KT 5SM -SNRA BR OVC010
     FM270000 29005KT 6SM BR VCSH OVC012
     FM270600 32011KT P6SM OVC015
     FM271400 31012KT P6SM BKN020
     FM271800 31010KT P6SM SCT025 BKN250=



000
FTUS43 KLSX 261900 AAA
TAFSUS
TAF AMD
KSUS 261906Z 2619/2718 14004KT 3/4SM -SN BR OVC009
     FM262100 16004KT 5SM -SNRA BR OVC010
     FM270000 29006KT 6SM BR VCSH OVC012
     FM270600 32010KT P6SM OVC015
     FM271400 31010KT P6SM BKN020=



000
FTUS43 KLSX 261900 AAA
TAFSTL
TAF AMD
KSTL 261905Z 2619/2724 14008KT 3/4SM -SN BR OVC007
     FM262100 16006KT 5SM -SNRA BR OVC010
     FM270000 29007KT 6SM BR VCSH OVC012
     FM270600 32011KT P6SM OVC015
     FM271400 31012KT P6SM BKN020
     FM271800 31010KT P6SM SCT025 BKN250=



000
FTUS43 KLSX 261800 AAA
TAFUIN
TAF AMD
KUIN 261836Z 2619/2718 14008KT 1/4SM SN FG OVC007
     FM261930 15006KT 1SM -SN BR OVC007
     FM262200 VRB04KT 4SM -SN BR OVC007
     FM270200 34010KT P6SM VCSH OVC007
     FM270600 32012KT P6SM OVC007
     FM271400 32012KT P6SM SCT015 BKN250=



000
FTUS43 KLSX 261700
TAFSUS
TAF
KSUS 261737Z 2618/2718 14006KT 1SM -SN BR OVC015
     FM262000 16006KT 5SM -SNRA BR OVC015
     FM270000 29007KT 6SM BR VCSH OVC015
     FM270600 32010KT P6SM OVC015
     FM271400 31010KT P6SM BKN020=



000
FTUS43 KLSX 261700
TAFSTL
TAF
KSTL 261737Z 2618/2724 14009KT 1SM -SN BR OVC015
     FM262000 16007KT 5SM -SNRA BR OVC015
     FM270000 29007KT 6SM BR VCSH OVC015
     FM270600 32011KT P6SM OVC015
     FM271400 31012KT P6SM BKN020
     FM271800 31010KT P6SM SCT025 BKN250=



000
FTUS43 KLSX 261700
TAFUIN
TAF
KUIN 261737Z 2618/2718 14010KT 1SM -SN BR OVC007
     FM262200 VRB04KT 4SM -SN BR OVC007
     FM270200 34010KT P6SM VCSH OVC007
     FM270600 32012KT P6SM OVC007
     FM271400 32012KT P6SM SCT015 BKN250=



000
FTUS43 KLSX 261700
TAFCOU
TAF
KCOU 261737Z 2618/2718 28012KT P6SM VCSH OVC012
     FM270000 32014KT P6SM OVC010
     FM271400 32009KT P6SM SCT020 BKN250=



000
FTUS43 KLSX 261700 AAA
TAFUIN
TAF AMD
KUIN 261715Z 2617/2712 14010KT 3SM -SN BR OVC025
      TEMPO 2617/2618 1SM -SN BR OVC007
     FM261800 14010KT 1SM -SN BR OVC007
     FM262200 02005KT 5SM -SN BR OVC015
     FM270600 33010KT P6SM -SHSN OVC015=



000
FTUS43 KLSX 261700 AAB
TAFCOU
TAF AMD
KCOU 261710Z 2617/2712 23008KT P6SM OVC006
     FM261800 27010KT P6SM VCSH OVC012
     FM262300 31013KT P6SM OVC025=



000
FTUS43 KLSX 261700 AAB
TAFSUS
TAF AMD
KSUS 261702Z 2617/2712 14007KT 4SM -SN BR OVC030
     FM261730 14006KT 1SM -SN BR OVC015
     FM262000 16006KT 5SM -SNRA BR OVC015
     FM270000 29007KT 6SM BR VCSH OVC015
     FM270600 32010KT P6SM OVC015=



000
FTUS43 KLSX 261700 AAB
TAFSTL
TAF AMD
KSTL 261700Z 2617/2718 13010KT P6SM OVC060
     FM261740 14010KT 3SM -SN BR OVC025
     FM261800 14009KT 1SM -SN BR OVC015
     FM262000 16007KT 5SM -SNRA BR OVC015
     FM270000 29007KT 6SM BR VCSH OVC015
     FM270600 32011KT P6SM OVC015
     FM271400 31012KT P6SM BKN020=



000
FTUS43 KLSX 261500 AAA
TAFSUS
TAF AMD
KSUS 261507Z 2615/2712 13007KT P6SM OVC080
     FM261700 15007KT 5SM -RASN BR OVC025
      TEMPO 2617/2621 2SM -SN BR SCT006 OVC015
     FM262200 VRB03KT 5SM -RASN BR SCT007 OVC015
     FM270300 32007KT P6SM -SHSN OVC025=



000
FTUS43 KLSX 261500 AAA
TAFSTL
TAF AMD
KSTL 261506Z 2615/2718 14011KT P6SM OVC080
     FM261700 15009KT 5SM -RASN BR OVC025
      TEMPO 2617/2621 2SM -SN BR SCT006 OVC015
     FM262200 VRB03KT 5SM -RASN BR SCT007 OVC015
     FM270300 32007KT P6SM -SHSN OVC025=



000
FTUS43 KLSX 261400 AAA
TAFCOU
TAF AMD
KCOU 261451Z 2615/2712 17005KT 3SM -SN BR OVC020
      TEMPO 2615/2617 3/4SM -SN BR OVC009
     FM261700 29011KT P6SM VCSH SCT020 OVC050
     FM262300 31013KT P6SM OVC025=



000
FTUS43 KLSX 261100
TAFSTL
TAF
KSTL 261138Z 2612/2718 13008KT P6SM OVC080
     FM261600 15008KT 5SM -RASN BR OVC025
      TEMPO 2617/2621 2SM -SN BR SCT006 OVC015
     FM262200 VRB03KT 5SM -RASN BR SCT007 OVC015
     FM270300 32007KT P6SM -SHSN OVC025=



000
FTUS43 KLSX 261100
TAFUIN
TAF
KUIN 261138Z 2612/2712 14008KT P6SM OVC120
     FM261600 15010KT 3SM -SN BR SCT015 OVC025
      TEMPO 2617/2621 1SM -SN BR BKN005 OVC012
     FM262200 02005KT 5SM -SN BR OVC015
     FM270600 33010KT P6SM -SHSN BKN025 OVC040=



000
FTUS43 KLSX 261100
TAFCOU
TAF
KCOU 261138Z 2612/2712 14007KT P6SM OVC120
     FM261400 17008KT 5SM -RASN BR BKN020 OVC050
      TEMPO 2615/2617 2SM -SN BR SCT006 OVC010
     FM261700 29011KT P6SM VCSH SCT020 OVC050
     FM262300 31013KT P6SM OVC025=



000
FTUS43 KLSX 261100
TAFSUS
TAF
KSUS 261138Z 2612/2712 13008KT P6SM OVC080
     FM261600 15008KT 5SM -RASN BR OVC025
      TEMPO 2617/2621 2SM -SN BR SCT006 OVC015
     FM262200 VRB03KT 5SM -RASN BR SCT007 OVC015
     FM270300 32007KT P6SM -SHSN OVC025=



000
FTUS43 KLSX 260900 AAA
TAFSTL
TAF AMD
KSTL 260914Z 2609/2712 12007KT P6SM BKN200
     FM261200 14007KT P6SM OVC080
     FM261600 15008KT 2SM -SN BR SCT006 OVC015
     FM262000 22006KT 3SM -RASN BR BKN006 OVC010
     FM270000 32007KT P6SM -SN OVC015=



000
FTUS43 KLSX 260500
TAFSTL
TAF
KSTL 260521Z 2606/2712 13007KT P6SM BKN150
     FM261200 14007KT P6SM OVC080
     FM261600 15008KT 2SM -SN BR SCT006 OVC015
     FM262000 22006KT 3SM -RASN BR BKN006 OVC010
     FM270000 32007KT P6SM -SN OVC015=



000
FTUS43 KLSX 260500
TAFUIN
TAF
KUIN 260521Z 2606/2706 14008KT P6SM OVC120
     FM261600 15010KT 2SM -SN BR OVC015
     FM262300 34005KT P6SM -SN OVC015=



000
FTUS43 KLSX 260500
TAFCOU
TAF
KCOU 260521Z 2606/2706 14007KT P6SM OVC120
     FM261400 17008KT 2SM -SN BR SCT006 OVC010
     FM261800 27011KT P6SM -SN OVC015
     FM270000 31011KT P6SM OVC025=



000
FTUS43 KLSX 260500
TAFSUS
TAF
KSUS 260521Z 2606/2706 VRB03KT P6SM BKN250
     FM261200 14007KT P6SM OVC080
     FM261600 15008KT 2SM -SN BR SCT006 OVC015
     FM262100 22006KT 3SM -RASN BR BKN006 OVC010
     FM270000 32005KT P6SM -SN OVC015=



    US Dept of Commerce
    National Oceanic and Atmospheric Administration
    National Weather Service
    1325 East West Highway
    Silver Spring, MD 20910
    Page Author: NWS Internet Services Team
Disclaimer
Information Quality
Credits
Glossary
Privacy Policy
Freedom of Information Act (FOIA)
About Us
Career Opportunities